sensor_id;sensor_type;location;lat;lon;timestamp;P1;durP1;ratioP1;P2;durP2;ratioP2
68025;SDS011;54819;48.030;14.710;2022-10-13T00:01:17;15.10;;;7.80;;
68025;SDS011;54819;48.030;14.710;2022-10-13T00:03:46;14.60;;;7.80;;
68025;SDS011;54819;48.030;14.710;2022-10-13T00:06:20;14.90;;;7.50;;
68025;SDS011;54819;48.030;14.710;2022-10-13T00:08:50;13.10;;;7.00;;
68025;SDS011;54819;48.030;14.710;2022-10-13T00:11:20;14.30;;;7.30;;
68025;SDS011;54819;48.030;14.710;2022-10-13T00:13:50;15.60;;;8.40;;
68025;SDS011;54819;48.030;14.710;2022-10-13T00:16:21;17.80;;;8.30;;
68025;SDS011;54819;48.030;14.710;2022-10-13T00:18:49;17.10;;;8.70;;
68025;SDS011;54819;48.030;14.710;2022-10-13T00:21:20;14.10;;;8.00;;
68025;SDS011;54819;48.030;14.710;2022-10-13T00:23:50;13.00;;;7.30;;
68025;SDS011;54819;48.030;14.710;2022-10-13T00:26:20;12.60;;;7.40;;
68025;SDS011;54819;48.030;14.710;2022-10-13T00:28:49;14.40;;;7.20;;
68025;SDS011;54819;48.030;14.710;2022-10-13T00:31:27;12.80;;;7.40;;
68025;SDS011;54819;48.030;14.710;2022-10-13T00:33:56;11.20;;;6.70;;
68025;SDS011;54819;48.030;14.710;2022-10-13T00:36:24;18.00;;;7.40;;
68025;SDS011;54819;48.030;14.710;2022-10-13T00:38:55;17.60;;;7.70;;
68025;SDS011;54819;48.030;14.710;2022-10-13T00:41:23;13.00;;;7.40;;
68025;SDS011;54819;48.030;14.710;2022-10-13T00:44:02;17.50;;;7.90;;
68025;SDS011;54819;48.030;14.710;2022-10-13T00:46:35;11.70;;;6.90;;
68025;SDS011;54819;48.030;14.710;2022-10-13T00:49:09;11.70;;;6.80;;
68025;SDS011;54819;48.030;14.710;2022-10-13T00:51:46;17.80;;;7.50;;
68025;SDS011;54819;48.030;14.710;2022-10-13T00:54:20;11.30;;;6.80;;
68025;SDS011;54819;48.030;14.710;2022-10-13T00:56:50;14.90;;;7.30;;
68025;SDS011;54819;48.030;14.710;2022-10-13T00:59:28;11.90;;;7.00;;
68025;SDS011;54819;48.030;14.710;2022-10-13T01:01:57;12.40;;;7.20;;
68025;SDS011;54819;48.030;14.710;2022-10-13T01:04:30;13.90;;;7.40;;
68025;SDS011;54819;48.030;14.710;2022-10-13T01:07:00;15.40;;;7.00;;
68025;SDS011;54819;48.030;14.710;2022-10-13T01:09:29;15.90;;;7.60;;
68025;SDS011;54819;48.030;14.710;2022-10-13T01:15:15;12.50;;;7.10;;
68025;SDS011;54819;48.030;14.710;2022-10-13T01:21:17;15.30;;;6.80;;
68025;SDS011;54819;48.030;14.710;2022-10-13T01:35:58;14.90;;;9.10;;
68025;SDS011;54819;48.030;14.710;2022-10-13T01:38:33;15.10;;;8.30;;
68025;SDS011;54819;48.030;14.710;2022-10-13T01:41:16;15.70;;;9.20;;
68025;SDS011;54819;48.030;14.710;2022-10-13T01:43:56;16.80;;;7.90;;
68025;SDS011;54819;48.030;14.710;2022-10-13T01:46:31;16.30;;;8.70;;
68025;SDS011;54819;48.030;14.710;2022-10-13T01:49:04;15.50;;;8.20;;
68025;SDS011;54819;48.030;14.710;2022-10-13T01:51:36;16.40;;;8.50;;
68025;SDS011;54819;48.030;14.710;2022-10-13T01:54:04;13.60;;;6.30;;
68025;SDS011;54819;48.030;14.710;2022-10-13T01:56:31;12.50;;;7.00;;
68025;SDS011;54819;48.030;14.710;2022-10-13T01:59:03;12.80;;;7.80;;
68025;SDS011;54819;48.030;14.710;2022-10-13T02:05:08;14.50;;;8.00;;
68025;SDS011;54819;48.030;14.710;2022-10-13T02:07:58;15.10;;;7.70;;
68025;SDS011;54819;48.030;14.710;2022-10-13T02:10:51;15.50;;;7.90;;
68025;SDS011;54819;48.030;14.710;2022-10-13T02:13:27;13.10;;;7.60;;
68025;SDS011;54819;48.030;14.710;2022-10-13T02:15:58;15.40;;;7.70;;
68025;SDS011;54819;48.030;14.710;2022-10-13T02:18:31;14.20;;;7.50;;
68025;SDS011;54819;48.030;14.710;2022-10-13T02:21:04;11.40;;;6.80;;
68025;SDS011;54819;48.030;14.710;2022-10-13T02:23:31;16.10;;;7.90;;
68025;SDS011;54819;48.030;14.710;2022-10-13T02:25:58;14.10;;;8.00;;
68025;SDS011;54819;48.030;14.710;2022-10-13T02:28:26;17.90;;;8.40;;
68025;SDS011;54819;48.030;14.710;2022-10-13T02:30:54;13.50;;;7.30;;
68025;SDS011;54819;48.030;14.710;2022-10-13T02:33:21;17.90;;;8.30;;
68025;SDS011;54819;48.030;14.710;2022-10-13T02:35:48;17.10;;;8.40;;
68025;SDS011;54819;48.030;14.710;2022-10-13T02:38:15;14.00;;;7.50;;
68025;SDS011;54819;48.030;14.710;2022-10-13T02:40:42;12.50;;;8.20;;
68025;SDS011;54819;48.030;14.710;2022-10-13T02:43:09;14.30;;;8.60;;
68025;SDS011;54819;48.030;14.710;2022-10-13T02:45:36;12.40;;;7.20;;
68025;SDS011;54819;48.030;14.710;2022-10-13T02:48:03;15.60;;;8.40;;
68025;SDS011;54819;48.030;14.710;2022-10-13T02:50:30;15.90;;;8.60;;
68025;SDS011;54819;48.030;14.710;2022-10-13T02:52:57;15.90;;;8.50;;
68025;SDS011;54819;48.030;14.710;2022-10-13T02:55:24;15.80;;;9.00;;
68025;SDS011;54819;48.030;14.710;2022-10-13T02:57:54;16.50;;;9.50;;
68025;SDS011;54819;48.030;14.710;2022-10-13T03:00:22;15.50;;;7.80;;
68025;SDS011;54819;48.030;14.710;2022-10-13T03:02:50;14.70;;;8.10;;
68025;SDS011;54819;48.030;14.710;2022-10-13T03:05:17;14.70;;;7.00;;
68025;SDS011;54819;48.030;14.710;2022-10-13T03:07:44;12.90;;;7.40;;
68025;SDS011;54819;48.030;14.710;2022-10-13T03:10:11;16.70;;;8.00;;
68025;SDS011;54819;48.030;14.710;2022-10-13T03:12:38;13.60;;;7.90;;
68025;SDS011;54819;48.030;14.710;2022-10-13T03:15:05;14.60;;;8.70;;
68025;SDS011;54819;48.030;14.710;2022-10-13T03:19:59;15.40;;;8.70;;
68025;SDS011;54819;48.030;14.710;2022-10-13T03:22:26;16.30;;;8.80;;
68025;SDS011;54819;48.030;14.710;2022-10-13T03:24:54;13.00;;;7.50;;
68025;SDS011;54819;48.030;14.710;2022-10-13T03:27:21;18.70;;;8.70;;
68025;SDS011;54819;48.030;14.710;2022-10-13T03:29:47;15.30;;;8.50;;
68025;SDS011;54819;48.030;14.710;2022-10-13T03:32:15;15.30;;;8.30;;
68025;SDS011;54819;48.030;14.710;2022-10-13T03:34:42;17.00;;;9.90;;
68025;SDS011;54819;48.030;14.710;2022-10-13T03:37:09;15.40;;;9.20;;
68025;SDS011;54819;48.030;14.710;2022-10-13T03:39:40;19.60;;;9.00;;
68025;SDS011;54819;48.030;14.710;2022-10-13T03:42:08;16.80;;;9.50;;
68025;SDS011;54819;48.030;14.710;2022-10-13T03:44:36;19.20;;;9.30;;
68025;SDS011;54819;48.030;14.710;2022-10-13T03:47:04;18.60;;;9.00;;
68025;SDS011;54819;48.030;14.710;2022-10-13T03:49:31;15.40;;;8.20;;
68025;SDS011;54819;48.030;14.710;2022-10-13T03:51:58;14.20;;;8.90;;
68025;SDS011;54819;48.030;14.710;2022-10-13T03:54:25;18.70;;;9.60;;
68025;SDS011;54819;48.030;14.710;2022-10-13T03:56:51;15.00;;;8.20;;
68025;SDS011;54819;48.030;14.710;2022-10-13T03:59:18;12.90;;;6.70;;
68025;SDS011;54819;48.030;14.710;2022-10-13T04:01:45;21.90;;;9.00;;
68025;SDS011;54819;48.030;14.710;2022-10-13T04:04:12;18.50;;;11.10;;
68025;SDS011;54819;48.030;14.710;2022-10-13T04:06:40;19.00;;;10.50;;
68025;SDS011;54819;48.030;14.710;2022-10-13T04:09:08;15.20;;;9.80;;
68025;SDS011;54819;48.030;14.710;2022-10-13T04:11:35;25.60;;;9.20;;
68025;SDS011;54819;48.030;14.710;2022-10-13T04:14:02;19.90;;;10.40;;
68025;SDS011;54819;48.030;14.710;2022-10-13T04:16:30;14.20;;;8.10;;
68025;SDS011;54819;48.030;14.710;2022-10-13T04:19:03;15.90;;;8.40;;
68025;SDS011;54819;48.030;14.710;2022-10-13T04:21:32;12.70;;;7.40;;
68025;SDS011;54819;48.030;14.710;2022-10-13T04:24:01;15.50;;;8.40;;
68025;SDS011;54819;48.030;14.710;2022-10-13T04:26:30;17.30;;;9.00;;
68025;SDS011;54819;48.030;14.710;2022-10-13T04:29:06;18.50;;;9.60;;
68025;SDS011;54819;48.030;14.710;2022-10-13T04:31:36;18.20;;;9.80;;
68025;SDS011;54819;48.030;14.710;2022-10-13T04:34:04;14.80;;;7.60;;
68025;SDS011;54819;48.030;14.710;2022-10-13T04:36:33;22.10;;;9.40;;
68025;SDS011;54819;48.030;14.710;2022-10-13T04:39:00;18.70;;;9.50;;
68025;SDS011;54819;48.030;14.710;2022-10-13T04:41:27;14.40;;;8.20;;
68025;SDS011;54819;48.030;14.710;2022-10-13T04:43:54;14.70;;;7.80;;
68025;SDS011;54819;48.030;14.710;2022-10-13T04:46:23;14.10;;;7.90;;
68025;SDS011;54819;48.030;14.710;2022-10-13T04:48:53;15.70;;;8.50;;
68025;SDS011;54819;48.030;14.710;2022-10-13T04:51:24;14.80;;;8.80;;
68025;SDS011;54819;48.030;14.710;2022-10-13T04:53:56;19.80;;;9.40;;
68025;SDS011;54819;48.030;14.710;2022-10-13T04:56:24;18.60;;;9.40;;
68025;SDS011;54819;48.030;14.710;2022-10-13T04:58:51;17.30;;;9.30;;
68025;SDS011;54819;48.030;14.710;2022-10-13T05:01:21;22.60;;;8.90;;
68025;SDS011;54819;48.030;14.710;2022-10-13T05:03:54;12.60;;;7.70;;
68025;SDS011;54819;48.030;14.710;2022-10-13T05:06:35;17.80;;;8.20;;
68025;SDS011;54819;48.030;14.710;2022-10-13T05:09:24;13.50;;;7.20;;
68025;SDS011;54819;48.030;14.710;2022-10-13T05:11:51;17.30;;;8.20;;
68025;SDS011;54819;48.030;14.710;2022-10-13T05:14:21;19.60;;;10.40;;
68025;SDS011;54819;48.030;14.710;2022-10-13T05:16:48;22.40;;;10.70;;
68025;SDS011;54819;48.030;14.710;2022-10-13T05:19:15;15.30;;;9.10;;
68025;SDS011;54819;48.030;14.710;2022-10-13T05:21:42;16.80;;;8.60;;
68025;SDS011;54819;48.030;14.710;2022-10-13T05:24:09;14.90;;;8.30;;
68025;SDS011;54819;48.030;14.710;2022-10-13T05:26:39;13.00;;;7.80;;
68025;SDS011;54819;48.030;14.710;2022-10-13T05:29:07;13.70;;;8.20;;
68025;SDS011;54819;48.030;14.710;2022-10-13T05:31:35;15.30;;;8.10;;
68025;SDS011;54819;48.030;14.710;2022-10-13T05:34:02;18.10;;;7.90;;
68025;SDS011;54819;48.030;14.710;2022-10-13T05:36:31;13.70;;;8.30;;
68025;SDS011;54819;48.030;14.710;2022-10-13T05:39:02;15.00;;;8.30;;
68025;SDS011;54819;48.030;14.710;2022-10-13T05:41:31;15.60;;;8.60;;
68025;SDS011;54819;48.030;14.710;2022-10-13T05:44:05;20.50;;;10.20;;
68025;SDS011;54819;48.030;14.710;2022-10-13T05:46:35;17.80;;;8.50;;
68025;SDS011;54819;48.030;14.710;2022-10-13T05:49:02;17.40;;;8.50;;
68025;SDS011;54819;48.030;14.710;2022-10-13T05:51:33;12.50;;;7.50;;
68025;SDS011;54819;48.030;14.710;2022-10-13T05:54:09;14.30;;;8.00;;
68025;SDS011;54819;48.030;14.710;2022-10-13T05:56:53;12.10;;;7.30;;
68025;SDS011;54819;48.030;14.710;2022-10-13T05:59:36;14.40;;;8.30;;
68025;SDS011;54819;48.030;14.710;2022-10-13T06:02:09;14.30;;;7.90;;
68025;SDS011;54819;48.030;14.710;2022-10-13T06:04:44;16.30;;;8.80;;
68025;SDS011;54819;48.030;14.710;2022-10-13T06:07:14;16.00;;;9.00;;
68025;SDS011;54819;48.030;14.710;2022-10-13T06:09:41;15.90;;;8.70;;
68025;SDS011;54819;48.030;14.710;2022-10-13T06:12:09;14.30;;;7.80;;
68025;SDS011;54819;48.030;14.710;2022-10-13T06:14:36;18.70;;;7.60;;
68025;SDS011;54819;48.030;14.710;2022-10-13T06:17:05;12.90;;;7.20;;
68025;SDS011;54819;48.030;14.710;2022-10-13T06:19:33;17.30;;;7.50;;
68025;SDS011;54819;48.030;14.710;2022-10-13T06:22:06;15.60;;;6.40;;
68025;SDS011;54819;48.030;14.710;2022-10-13T06:24:33;12.40;;;8.00;;
68025;SDS011;54819;48.030;14.710;2022-10-13T06:27:02;14.00;;;7.50;;
68025;SDS011;54819;48.030;14.710;2022-10-13T06:29:30;19.10;;;8.10;;
68025;SDS011;54819;48.030;14.710;2022-10-13T06:31:58;16.80;;;7.70;;
68025;SDS011;54819;48.030;14.710;2022-10-13T06:34:26;17.30;;;8.20;;
68025;SDS011;54819;48.030;14.710;2022-10-13T06:36:53;18.20;;;9.20;;
68025;SDS011;54819;48.030;14.710;2022-10-13T06:39:19;11.80;;;6.90;;
68025;SDS011;54819;48.030;14.710;2022-10-13T06:41:46;14.30;;;7.80;;
68025;SDS011;54819;48.030;14.710;2022-10-13T06:44:13;17.80;;;7.60;;
68025;SDS011;54819;48.030;14.710;2022-10-13T06:46:40;17.60;;;7.60;;
68025;SDS011;54819;48.030;14.710;2022-10-13T06:49:07;14.10;;;7.30;;
68025;SDS011;54819;48.030;14.710;2022-10-13T06:51:35;14.70;;;7.10;;
68025;SDS011;54819;48.030;14.710;2022-10-13T06:54:02;16.70;;;8.60;;
68025;SDS011;54819;48.030;14.710;2022-10-13T06:56:31;11.70;;;7.60;;
68025;SDS011;54819;48.030;14.710;2022-10-13T06:59:04;13.40;;;7.60;;
68025;SDS011;54819;48.030;14.710;2022-10-13T07:01:32;41.80;;;8.50;;
68025;SDS011;54819;48.030;14.710;2022-10-13T07:04:07;12.50;;;7.00;;
68025;SDS011;54819;48.030;14.710;2022-10-13T07:09:06;12.70;;;7.50;;
68025;SDS011;54819;48.030;14.710;2022-10-13T07:11:34;12.60;;;7.30;;
68025;SDS011;54819;48.030;14.710;2022-10-13T07:14:01;15.90;;;7.60;;
68025;SDS011;54819;48.030;14.710;2022-10-13T07:16:29;11.00;;;7.70;;
68025;SDS011;54819;48.030;14.710;2022-10-13T07:18:56;16.50;;;9.80;;
68025;SDS011;54819;48.030;14.710;2022-10-13T07:21:23;13.30;;;7.50;;
68025;SDS011;54819;48.030;14.710;2022-10-13T07:23:50;20.00;;;8.40;;
68025;SDS011;54819;48.030;14.710;2022-10-13T07:26:17;22.20;;;9.00;;
68025;SDS011;54819;48.030;14.710;2022-10-13T07:28:44;13.40;;;7.80;;
68025;SDS011;54819;48.030;14.710;2022-10-13T07:31:13;22.40;;;7.60;;
68025;SDS011;54819;48.030;14.710;2022-10-13T07:33:44;19.60;;;9.10;;
68025;SDS011;54819;48.030;14.710;2022-10-13T07:36:15;17.10;;;8.80;;
68025;SDS011;54819;48.030;14.710;2022-10-13T07:38:43;24.90;;;9.80;;
68025;SDS011;54819;48.030;14.710;2022-10-13T07:41:12;22.00;;;9.40;;
68025;SDS011;54819;48.030;14.710;2022-10-13T07:43:39;20.10;;;9.40;;
68025;SDS011;54819;48.030;14.710;2022-10-13T07:48:34;17.10;;;8.30;;
68025;SDS011;54819;48.030;14.710;2022-10-13T07:51:04;16.30;;;8.90;;
68025;SDS011;54819;48.030;14.710;2022-10-13T07:53:33;15.70;;;7.90;;
68025;SDS011;54819;48.030;14.710;2022-10-13T07:56:03;18.00;;;8.20;;
68025;SDS011;54819;48.030;14.710;2022-10-13T07:58:32;18.10;;;9.00;;
68025;SDS011;54819;48.030;14.710;2022-10-13T08:01:02;16.50;;;9.00;;
68025;SDS011;54819;48.030;14.710;2022-10-13T08:03:29;15.30;;;8.80;;
68025;SDS011;54819;48.030;14.710;2022-10-13T08:05:58;14.90;;;7.80;;
68025;SDS011;54819;48.030;14.710;2022-10-13T08:08:27;17.80;;;8.20;;
68025;SDS011;54819;48.030;14.710;2022-10-13T08:10:54;18.60;;;8.80;;
68025;SDS011;54819;48.030;14.710;2022-10-13T08:13:30;18.30;;;9.70;;
68025;SDS011;54819;48.030;14.710;2022-10-13T08:16:04;21.90;;;10.20;;
68025;SDS011;54819;48.030;14.710;2022-10-13T08:18:31;18.30;;;10.10;;
68025;SDS011;54819;48.030;14.710;2022-10-13T08:21:00;17.60;;;9.90;;
68025;SDS011;54819;48.030;14.710;2022-10-13T08:23:49;18.00;;;9.40;;
68025;SDS011;54819;48.030;14.710;2022-10-13T08:26:24;15.50;;;8.30;;
68025;SDS011;54819;48.030;14.710;2022-10-13T08:28:52;21.80;;;9.30;;
68025;SDS011;54819;48.030;14.710;2022-10-13T08:31:40;17.50;;;9.00;;
68025;SDS011;54819;48.030;14.710;2022-10-13T08:34:09;16.60;;;9.20;;
68025;SDS011;54819;48.030;14.710;2022-10-13T08:36:37;17.70;;;8.80;;
68025;SDS011;54819;48.030;14.710;2022-10-13T08:41:37;19.70;;;10.00;;
68025;SDS011;54819;48.030;14.710;2022-10-13T08:44:21;23.40;;;10.30;;
68025;SDS011;54819;48.030;14.710;2022-10-13T08:49:56;17.30;;;8.60;;
68025;SDS011;54819;48.030;14.710;2022-10-13T08:52:29;23.00;;;9.70;;
68025;SDS011;54819;48.030;14.710;2022-10-13T08:55:24;15.40;;;8.90;;
68025;SDS011;54819;48.030;14.710;2022-10-13T08:57:56;17.60;;;9.40;;
68025;SDS011;54819;48.030;14.710;2022-10-13T09:00:25;18.80;;;9.60;;
68025;SDS011;54819;48.030;14.710;2022-10-13T09:02:58;18.50;;;9.10;;
68025;SDS011;54819;48.030;14.710;2022-10-13T09:05:49;19.20;;;9.60;;
68025;SDS011;54819;48.030;14.710;2022-10-13T09:08:46;19.60;;;9.10;;
68025;SDS011;54819;48.030;14.710;2022-10-13T09:11:19;14.90;;;8.70;;
68025;SDS011;54819;48.030;14.710;2022-10-13T09:13:46;19.90;;;8.90;;
68025;SDS011;54819;48.030;14.710;2022-10-13T09:16:14;16.70;;;10.20;;
68025;SDS011;54819;48.030;14.710;2022-10-13T09:18:40;16.20;;;8.60;;
68025;SDS011;54819;48.030;14.710;2022-10-13T09:21:23;21.10;;;10.40;;
68025;SDS011;54819;48.030;14.710;2022-10-13T09:23:51;17.60;;;9.40;;
68025;SDS011;54819;48.030;14.710;2022-10-13T09:26:23;17.00;;;9.50;;
68025;SDS011;54819;48.030;14.710;2022-10-13T09:28:51;20.00;;;9.50;;
68025;SDS011;54819;48.030;14.710;2022-10-13T09:31:24;21.00;;;9.90;;
68025;SDS011;54819;48.030;14.710;2022-10-13T09:34:14;15.40;;;9.10;;
68025;SDS011;54819;48.030;14.710;2022-10-13T09:37:00;17.00;;;8.50;;
68025;SDS011;54819;48.030;14.710;2022-10-13T09:39:30;16.60;;;9.50;;
68025;SDS011;54819;48.030;14.710;2022-10-13T09:44:55;17.00;;;9.00;;
68025;SDS011;54819;48.030;14.710;2022-10-13T09:47:28;16.30;;;9.40;;
68025;SDS011;54819;48.030;14.710;2022-10-13T09:50:30;17.50;;;9.50;;
68025;SDS011;54819;48.030;14.710;2022-10-13T09:53:37;16.20;;;8.30;;
68025;SDS011;54819;48.030;14.710;2022-10-13T10:01:38;18.50;;;9.80;;
68025;SDS011;54819;48.030;14.710;2022-10-13T10:04:16;15.30;;;8.80;;
68025;SDS011;54819;48.030;14.710;2022-10-13T10:06:49;17.40;;;9.20;;
68025;SDS011;54819;48.030;14.710;2022-10-13T10:12:13;18.20;;;8.90;;
68025;SDS011;54819;48.030;14.710;2022-10-13T10:14:43;14.70;;;8.20;;
68025;SDS011;54819;48.030;14.710;2022-10-13T10:17:19;18.10;;;8.10;;
68025;SDS011;54819;48.030;14.710;2022-10-13T10:22:48;15.40;;;7.90;;
68025;SDS011;54819;48.030;14.710;2022-10-13T10:26:22;20.80;;;8.80;;
68025;SDS011;54819;48.030;14.710;2022-10-13T10:32:08;12.40;;;7.60;;
68025;SDS011;54819;48.030;14.710;2022-10-13T10:34:54;17.90;;;8.40;;
68025;SDS011;54819;48.030;14.710;2022-10-13T10:40:37;17.40;;;8.80;;
68025;SDS011;54819;48.030;14.710;2022-10-13T10:43:45;18.00;;;10.10;;
68025;SDS011;54819;48.030;14.710;2022-10-13T10:46:30;19.40;;;8.90;;
68025;SDS011;54819;48.030;14.710;2022-10-13T10:49:09;17.80;;;9.20;;
68025;SDS011;54819;48.030;14.710;2022-10-13T10:51:45;17.40;;;9.10;;
68025;SDS011;54819;48.030;14.710;2022-10-13T10:54:21;17.00;;;9.90;;
68025;SDS011;54819;48.030;14.710;2022-10-13T10:57:11;17.90;;;8.80;;
68025;SDS011;54819;48.030;14.710;2022-10-13T11:00:03;24.20;;;11.10;;
68025;SDS011;54819;48.030;14.710;2022-10-13T11:16:34;21.60;;;9.40;;
68025;SDS011;54819;48.030;14.710;2022-10-13T11:46:24;17.40;;;9.90;;
68025;SDS011;54819;48.030;14.710;2022-10-13T11:49:16;16.20;;;10.30;;
68025;SDS011;54819;48.030;14.710;2022-10-13T11:52:18;20.30;;;11.50;;
68025;SDS011;54819;48.030;14.710;2022-10-13T11:55:00;16.20;;;10.20;;
68025;SDS011;54819;48.030;14.710;2022-10-13T11:57:30;21.00;;;10.00;;
68025;SDS011;54819;48.030;14.710;2022-10-13T12:00:00;25.60;;;10.80;;
68025;SDS011;54819;48.030;14.710;2022-10-13T12:02:49;18.10;;;10.50;;
68025;SDS011;54819;48.030;14.710;2022-10-13T12:05:25;16.90;;;11.50;;
68025;SDS011;54819;48.030;14.710;2022-10-13T12:08:00;22.10;;;11.70;;
68025;SDS011;54819;48.030;14.710;2022-10-13T12:10:34;20.80;;;10.80;;
68025;SDS011;54819;48.030;14.710;2022-10-13T12:13:04;20.50;;;11.10;;
68025;SDS011;54819;48.030;14.710;2022-10-13T12:15:34;25.10;;;12.70;;
68025;SDS011;54819;48.030;14.710;2022-10-13T12:20:54;23.40;;;11.20;;
68025;SDS011;54819;48.030;14.710;2022-10-13T12:23:24;20.00;;;11.10;;
68025;SDS011;54819;48.030;14.710;2022-10-13T12:25:52;20.80;;;11.90;;
68025;SDS011;54819;48.030;14.710;2022-10-13T12:31:17;23.40;;;12.90;;
68025;SDS011;54819;48.030;14.710;2022-10-13T12:33:57;23.50;;;12.00;;
68025;SDS011;54819;48.030;14.710;2022-10-13T12:36:27;20.60;;;11.60;;
68025;SDS011;54819;48.030;14.710;2022-10-13T12:39:03;21.00;;;11.60;;
68025;SDS011;54819;48.030;14.710;2022-10-13T12:41:34;19.20;;;11.00;;
68025;SDS011;54819;48.030;14.710;2022-10-13T12:44:03;19.90;;;12.00;;
68025;SDS011;54819;48.030;14.710;2022-10-13T12:46:54;21.40;;;11.80;;
68025;SDS011;54819;48.030;14.710;2022-10-13T12:49:29;19.70;;;11.10;;
68025;SDS011;54819;48.030;14.710;2022-10-13T12:52:22;23.50;;;12.50;;
68025;SDS011;54819;48.030;14.710;2022-10-13T12:54:54;22.00;;;12.50;;
68025;SDS011;54819;48.030;14.710;2022-10-13T12:57:35;22.40;;;12.20;;
68025;SDS011;54819;48.030;14.710;2022-10-13T13:05:36;23.80;;;13.00;;
68025;SDS011;54819;48.030;14.710;2022-10-13T13:10:56;23.00;;;11.10;;
68025;SDS011;54819;48.030;14.710;2022-10-13T13:13:25;17.80;;;11.20;;
68025;SDS011;54819;48.030;14.710;2022-10-13T13:16:11;25.50;;;12.10;;
68025;SDS011;54819;48.030;14.710;2022-10-13T13:18:48;21.50;;;11.90;;
68025;SDS011;54819;48.030;14.710;2022-10-13T13:21:18;18.60;;;10.60;;
68025;SDS011;54819;48.030;14.710;2022-10-13T13:23:47;19.70;;;11.90;;
68025;SDS011;54819;48.030;14.710;2022-10-13T13:26:21;24.70;;;11.40;;
68025;SDS011;54819;48.030;14.710;2022-10-13T13:28:54;22.30;;;11.50;;
68025;SDS011;54819;48.030;14.710;2022-10-13T13:31:23;24.10;;;12.10;;
68025;SDS011;54819;48.030;14.710;2022-10-13T13:33:52;18.50;;;10.70;;
68025;SDS011;54819;48.030;14.710;2022-10-13T13:36:23;20.70;;;11.70;;
68025;SDS011;54819;48.030;14.710;2022-10-13T13:38:52;18.30;;;11.60;;
68025;SDS011;54819;48.030;14.710;2022-10-13T13:41:20;19.40;;;10.90;;
68025;SDS011;54819;48.030;14.710;2022-10-13T13:43:47;25.30;;;11.10;;
68025;SDS011;54819;48.030;14.710;2022-10-13T13:48:45;21.90;;;11.10;;
68025;SDS011;54819;48.030;14.710;2022-10-13T13:51:12;23.90;;;12.10;;
68025;SDS011;54819;48.030;14.710;2022-10-13T13:53:40;18.60;;;10.70;;
68025;SDS011;54819;48.030;14.710;2022-10-13T13:56:12;26.20;;;11.90;;
68025;SDS011;54819;48.030;14.710;2022-10-13T13:58:40;17.70;;;11.30;;
68025;SDS011;54819;48.030;14.710;2022-10-13T14:01:09;22.10;;;11.70;;
68025;SDS011;54819;48.030;14.710;2022-10-13T14:03:37;22.80;;;12.60;;
68025;SDS011;54819;48.030;14.710;2022-10-13T14:06:06;22.30;;;11.20;;
68025;SDS011;54819;48.030;14.710;2022-10-13T14:08:34;25.50;;;13.00;;
68025;SDS011;54819;48.030;14.710;2022-10-13T14:11:08;21.90;;;12.10;;
68025;SDS011;54819;48.030;14.710;2022-10-13T14:13:35;24.60;;;11.50;;
68025;SDS011;54819;48.030;14.710;2022-10-13T14:16:03;24.40;;;12.60;;
68025;SDS011;54819;48.030;14.710;2022-10-13T14:20:57;21.00;;;11.50;;
68025;SDS011;54819;48.030;14.710;2022-10-13T14:23:25;22.20;;;11.80;;
68025;SDS011;54819;48.030;14.710;2022-10-13T14:25:52;23.30;;;12.60;;
68025;SDS011;54819;48.030;14.710;2022-10-13T14:28:21;29.20;;;12.90;;
68025;SDS011;54819;48.030;14.710;2022-10-13T14:30:48;24.60;;;13.60;;
68025;SDS011;54819;48.030;14.710;2022-10-13T14:33:15;27.70;;;13.90;;
68025;SDS011;54819;48.030;14.710;2022-10-13T14:35:45;20.60;;;11.20;;
68025;SDS011;54819;48.030;14.710;2022-10-13T14:38:14;25.80;;;12.60;;
68025;SDS011;54819;48.030;14.710;2022-10-13T14:40:43;19.90;;;11.90;;
68025;SDS011;54819;48.030;14.710;2022-10-13T14:43:09;23.70;;;13.30;;
68025;SDS011;54819;48.030;14.710;2022-10-13T14:45:36;31.20;;;12.90;;
68025;SDS011;54819;48.030;14.710;2022-10-13T14:48:04;22.10;;;12.50;;
68025;SDS011;54819;48.030;14.710;2022-10-13T14:50:32;19.90;;;11.50;;
68025;SDS011;54819;48.030;14.710;2022-10-13T14:52:59;24.80;;;12.60;;
68025;SDS011;54819;48.030;14.710;2022-10-13T14:55:26;25.00;;;12.60;;
68025;SDS011;54819;48.030;14.710;2022-10-13T14:57:53;21.00;;;11.80;;
68025;SDS011;54819;48.030;14.710;2022-10-13T15:00:20;20.40;;;12.80;;
68025;SDS011;54819;48.030;14.710;2022-10-13T15:02:47;23.70;;;12.60;;
68025;SDS011;54819;48.030;14.710;2022-10-13T15:05:14;22.60;;;12.40;;
68025;SDS011;54819;48.030;14.710;2022-10-13T15:07:41;21.90;;;12.00;;
68025;SDS011;54819;48.030;14.710;2022-10-13T15:10:08;21.70;;;12.50;;
68025;SDS011;54819;48.030;14.710;2022-10-13T15:12:35;24.80;;;12.40;;
68025;SDS011;54819;48.030;14.710;2022-10-13T15:15:02;21.90;;;12.30;;
68025;SDS011;54819;48.030;14.710;2022-10-13T15:17:30;28.00;;;13.90;;
68025;SDS011;54819;48.030;14.710;2022-10-13T15:19:58;28.90;;;14.70;;
68025;SDS011;54819;48.030;14.710;2022-10-13T15:22:26;30.40;;;14.40;;
68025;SDS011;54819;48.030;14.710;2022-10-13T15:24:52;27.40;;;13.80;;
68025;SDS011;54819;48.030;14.710;2022-10-13T15:27:19;27.60;;;14.10;;
68025;SDS011;54819;48.030;14.710;2022-10-13T15:29:46;24.70;;;13.70;;
68025;SDS011;54819;48.030;14.710;2022-10-13T15:32:16;25.80;;;13.80;;
68025;SDS011;54819;48.030;14.710;2022-10-13T15:34:56;26.70;;;13.20;;
68025;SDS011;54819;48.030;14.710;2022-10-13T15:37:26;24.70;;;13.30;;
68025;SDS011;54819;48.030;14.710;2022-10-13T15:39:53;28.30;;;14.10;;
68025;SDS011;54819;48.030;14.710;2022-10-13T15:42:23;27.70;;;13.60;;
68025;SDS011;54819;48.030;14.710;2022-10-13T15:44:50;28.50;;;14.50;;
68025;SDS011;54819;48.030;14.710;2022-10-13T15:47:35;24.90;;;13.10;;
68025;SDS011;54819;48.030;14.710;2022-10-13T15:50:02;28.00;;;13.90;;
68025;SDS011;54819;48.030;14.710;2022-10-13T15:52:30;22.50;;;13.20;;
68025;SDS011;54819;48.030;14.710;2022-10-13T15:55:00;25.30;;;13.20;;
68025;SDS011;54819;48.030;14.710;2022-10-13T15:57:29;23.60;;;13.30;;
68025;SDS011;54819;48.030;14.710;2022-10-13T15:59:57;25.20;;;14.00;;
68025;SDS011;54819;48.030;14.710;2022-10-13T16:02:23;31.10;;;15.10;;
68025;SDS011;54819;48.030;14.710;2022-10-13T16:04:50;30.70;;;16.90;;
68025;SDS011;54819;48.030;14.710;2022-10-13T16:07:18;31.60;;;16.00;;
68025;SDS011;54819;48.030;14.710;2022-10-13T16:09:48;33.60;;;15.40;;
68025;SDS011;54819;48.030;14.710;2022-10-13T16:12:18;42.30;;;17.30;;
68025;SDS011;54819;48.030;14.710;2022-10-13T16:14:46;39.50;;;17.70;;
68025;SDS011;54819;48.030;14.710;2022-10-13T16:17:14;33.20;;;14.90;;
68025;SDS011;54819;48.030;14.710;2022-10-13T16:19:41;29.90;;;14.80;;
68025;SDS011;54819;48.030;14.710;2022-10-13T16:22:09;28.30;;;14.50;;
68025;SDS011;54819;48.030;14.710;2022-10-13T16:24:36;29.80;;;15.20;;
68025;SDS011;54819;48.030;14.710;2022-10-13T16:27:04;29.50;;;14.90;;
68025;SDS011;54819;48.030;14.710;2022-10-13T16:31:59;28.30;;;13.60;;
68025;SDS011;54819;48.030;14.710;2022-10-13T16:34:26;22.30;;;12.70;;
68025;SDS011;54819;48.030;14.710;2022-10-13T16:36:54;30.20;;;13.80;;
68025;SDS011;54819;48.030;14.710;2022-10-13T16:39:21;26.70;;;13.60;;